createdAt,value
2023-03-02T00:00:55.333Z,16.80
2023-03-02T00:01:55.355Z,18.80
2023-03-02T00:02:55.378Z,16.80
2023-03-02T00:03:55.432Z,18.10
2023-03-02T00:04:55.296Z,18.50
2023-03-02T00:05:55.300Z,17.70
2023-03-02T00:06:55.283Z,18.80
2023-03-02T00:07:55.274Z,18.10
2023-03-02T00:08:55.276Z,16.30
2023-03-02T00:09:55.254Z,16.50
2023-03-02T00:10:55.262Z,17.60
2023-03-02T00:11:55.223Z,17.80
2023-03-02T00:12:55.213Z,19.00
2023-03-02T00:13:55.235Z,17.70
2023-03-02T00:14:55.202Z,17.80
2023-03-02T00:15:55.231Z,19.60
2023-03-02T00:16:55.175Z,20.50
2023-03-02T00:17:55.167Z,16.50
2023-03-02T00:18:55.171Z,20.00
2023-03-02T00:19:55.151Z,20.20
2023-03-02T00:20:55.135Z,19.90
2023-03-02T00:21:55.133Z,18.70
2023-03-02T00:22:55.116Z,19.60
2023-03-02T00:23:55.129Z,18.00
2023-03-02T00:24:55.125Z,20.30
2023-03-02T00:25:55.084Z,19.50
2023-03-02T00:26:55.080Z,19.90
2023-03-02T00:27:55.075Z,21.60
2023-03-02T00:28:55.063Z,19.40
2023-03-02T00:29:55.043Z,19.40
2023-03-02T00:30:55.030Z,20.80
2023-03-02T00:31:55.284Z,20.40
2023-03-02T00:32:55.014Z,19.00
2023-03-02T00:33:55.017Z,17.10
2023-03-02T00:34:54.983Z,18.40
2023-03-02T00:35:55.073Z,21.10
2023-03-02T00:36:54.962Z,18.90
2023-03-02T00:37:54.964Z,19.70
2023-03-02T00:38:54.950Z,18.70
2023-03-02T00:39:54.948Z,21.40
2023-03-02T00:40:54.952Z,18.50
2023-03-02T00:41:54.914Z,17.50
2023-03-02T00:42:54.906Z,20.20
2023-03-02T00:43:54.910Z,21.40
2023-03-02T00:44:54.892Z,19.20
2023-03-02T00:45:54.907Z,18.70
2023-03-02T00:46:54.966Z,18.10
2023-03-02T00:47:54.846Z,18.40
2023-03-02T00:48:54.869Z,19.50
2023-03-02T00:49:54.825Z,19.80
2023-03-02T00:50:54.828Z,19.00
2023-03-02T00:51:54.824Z,21.00
2023-03-02T00:52:54.804Z,20.00
2023-03-02T00:53:54.792Z,18.00
2023-03-02T00:54:54.775Z,19.70
2023-03-02T00:55:54.764Z,21.00
2023-03-02T00:56:54.752Z,20.20
2023-03-02T00:57:54.753Z,17.40
2023-03-02T00:58:54.742Z,18.60
2023-03-02T00:59:54.719Z,19.00
2023-03-02T01:00:54.716Z,19.00
2023-03-02T01:01:54.730Z,18.30
2023-03-02T01:02:54.803Z,21.00
2023-03-02T01:03:54.702Z,21.60
2023-03-02T01:04:54.691Z,18.90
2023-03-02T01:05:54.660Z,18.50
2023-03-02T01:06:54.663Z,21.40
2023-03-02T01:07:54.639Z,19.20
2023-03-02T01:08:54.654Z,21.30
2023-03-02T01:09:54.621Z,19.50
2023-03-02T01:10:54.623Z,19.00
2023-03-02T01:11:54.600Z,20.20
2023-03-02T01:12:54.596Z,19.90
2023-03-02T01:13:54.605Z,18.70
2023-03-02T01:14:54.576Z,21.10
2023-03-02T01:15:54.602Z,23.10
2023-03-02T01:16:54.597Z,20.50
2023-03-02T01:17:54.553Z,18.60
2023-03-02T01:18:54.561Z,20.30
2023-03-02T01:19:54.531Z,19.10
2023-03-02T01:20:54.525Z,17.80
2023-03-02T01:21:54.511Z,18.00
2023-03-02T01:22:54.495Z,20.60
2023-03-02T01:23:54.502Z,19.20
2023-03-02T01:24:54.474Z,20.90
2023-03-02T01:25:54.475Z,17.60
2023-03-02T01:26:54.450Z,16.90
2023-03-02T01:27:54.451Z,18.80
2023-03-02T01:28:54.451Z,19.90
2023-03-02T01:29:54.437Z,19.30
2023-03-02T01:30:54.421Z,17.90
2023-03-02T01:31:54.577Z,22.00
2023-03-02T01:32:54.394Z,18.20
2023-03-02T01:33:54.389Z,18.10
2023-03-02T01:34:54.368Z,18.10
2023-03-02T01:35:54.392Z,19.30
2023-03-02T01:36:54.355Z,18.80
2023-03-02T01:37:54.336Z,18.30
2023-03-02T01:38:54.406Z,18.90
2023-03-02T01:39:54.315Z,19.60
2023-03-02T01:40:54.308Z,19.50
2023-03-02T01:41:54.292Z,20.80
2023-03-02T01:42:54.301Z,19.80
2023-03-02T01:43:54.281Z,19.80
2023-03-02T01:44:54.278Z,22.00
2023-03-02T01:45:54.283Z,18.90
2023-03-02T01:46:54.247Z,17.40
2023-03-02T01:47:54.268Z,20.60
2023-03-02T01:48:54.254Z,21.30
2023-03-02T01:49:54.244Z,21.50
2023-03-02T01:50:54.202Z,21.40
2023-03-02T01:51:54.184Z,21.50
2023-03-02T01:52:54.205Z,20.60
2023-03-02T01:53:55.492Z,20.90
2023-03-02T01:54:54.172Z,20.00
2023-03-02T01:55:54.171Z,22.00
2023-03-02T01:56:54.157Z,20.20
2023-03-02T01:57:54.121Z,21.70
2023-03-02T01:58:54.136Z,20.30
2023-03-02T01:59:54.101Z,19.00
2023-03-02T02:00:54.139Z,20.60
2023-03-02T02:01:54.083Z,20.60
2023-03-02T02:02:54.085Z,19.60
2023-03-02T02:03:54.116Z,19.20
2023-03-02T02:04:54.062Z,20.50
2023-03-02T02:05:54.041Z,20.50
2023-03-02T02:06:54.051Z,19.40
2023-03-02T02:07:54.028Z,21.70
2023-03-02T02:08:54.039Z,19.80
2023-03-02T02:09:54.016Z,19.70
2023-03-02T02:10:53.993Z,20.20
2023-03-02T02:11:54.004Z,20.90
2023-03-02T02:12:53.976Z,19.30
2023-03-02T02:13:53.974Z,19.10
2023-03-02T02:14:53.985Z,19.50
2023-03-02T02:15:53.944Z,18.70
2023-03-02T02:16:53.961Z,19.10
2023-03-02T02:17:53.916Z,21.00
2023-03-02T02:18:53.931Z,18.30
2023-03-02T02:19:53.908Z,20.20
2023-03-02T02:20:53.896Z,19.20
2023-03-02T02:21:53.886Z,17.20
2023-03-02T02:22:53.878Z,18.00
2023-03-02T02:23:53.872Z,18.50
2023-03-02T02:24:53.856Z,19.80
2023-03-02T02:25:53.834Z,20.70
2023-03-02T02:26:53.835Z,19.50
2023-03-02T02:27:53.821Z,18.40
2023-03-02T02:28:53.824Z,18.70
2023-03-02T02:29:53.797Z,20.00
2023-03-02T02:30:53.794Z,18.50
2023-03-02T02:31:53.941Z,21.00
2023-03-02T02:32:53.859Z,19.80
2023-03-02T02:33:53.766Z,17.30
2023-03-02T02:34:53.753Z,18.20
2023-03-02T02:35:53.752Z,18.50
2023-03-02T02:36:53.752Z,17.90
2023-03-02T02:37:53.725Z,18.60
2023-03-02T02:38:53.719Z,20.00
2023-03-02T02:39:53.699Z,19.70
2023-03-02T02:40:53.699Z,18.20
2023-03-02T02:41:53.681Z,19.50
2023-03-02T02:42:53.665Z,19.10
2023-03-02T02:43:53.669Z,21.00
2023-03-02T02:44:53.639Z,19.70
2023-03-02T02:45:53.696Z,20.00
2023-03-02T02:46:53.629Z,19.90
2023-03-02T02:47:53.611Z,21.00
2023-03-02T02:48:53.659Z,19.90
2023-03-02T02:49:53.617Z,18.00
2023-03-02T02:50:53.581Z,20.30
2023-03-02T02:51:53.584Z,18.80
2023-03-02T02:52:53.569Z,21.10
2023-03-02T02:53:53.546Z,20.50
2023-03-02T02:54:53.567Z,18.80
2023-03-02T02:55:53.530Z,19.70
2023-03-02T02:56:53.551Z,19.20
2023-03-02T02:57:53.500Z,17.40
2023-03-02T02:58:53.493Z,17.60
2023-03-02T02:59:53.499Z,18.90
2023-03-02T03:00:53.529Z,18.20
2023-03-02T03:01:53.463Z,18.20
2023-03-02T03:02:53.451Z,19.50
2023-03-02T03:03:53.519Z,18.80
2023-03-02T03:04:53.450Z,17.40
2023-03-02T03:05:53.421Z,17.20
2023-03-02T03:06:53.417Z,18.80
2023-03-02T03:07:53.466Z,19.40
2023-03-02T03:08:53.397Z,20.10
2023-03-02T03:09:53.421Z,20.00
2023-03-02T03:10:53.380Z,19.10
2023-03-02T03:11:53.358Z,19.20
2023-03-02T03:12:53.359Z,19.50
2023-03-02T03:13:53.341Z,18.90
2023-03-02T03:14:53.354Z,18.50
2023-03-02T03:15:53.316Z,20.80
2023-03-02T03:16:53.390Z,21.40
2023-03-02T03:17:53.303Z,20.00
2023-03-02T03:18:53.294Z,19.90
2023-03-02T03:19:53.357Z,21.30
2023-03-02T03:20:53.271Z,18.50
2023-03-02T03:21:53.292Z,19.30
2023-03-02T03:22:53.247Z,19.20
2023-03-02T03:23:53.232Z,17.00
2023-03-02T03:24:53.241Z,16.10
2023-03-02T03:25:53.254Z,19.70
2023-03-02T03:26:53.202Z,17.80
2023-03-02T03:27:53.188Z,18.70
2023-03-02T03:28:53.180Z,17.00
2023-03-02T03:29:53.200Z,18.60
2023-03-02T03:30:53.221Z,17.70
2023-03-02T03:31:53.273Z,20.00
2023-03-02T03:32:53.188Z,17.90
2023-03-02T03:33:53.172Z,17.90
2023-03-02T03:34:53.199Z,18.80
2023-03-02T03:35:53.162Z,19.60
2023-03-02T03:36:53.129Z,19.70
2023-03-02T03:37:53.109Z,18.50
2023-03-02T03:38:53.137Z,20.60
2023-03-02T03:39:53.195Z,18.20
2023-03-02T03:40:53.248Z,17.90
2023-03-02T03:41:53.879Z,20.20
2023-03-02T03:42:53.386Z,18.60
2023-03-02T03:43:53.086Z,18.60
2023-03-02T03:44:53.167Z,20.00
2023-03-02T03:45:53.932Z,18.70
2023-03-02T03:46:53.448Z,18.90
2023-03-02T03:47:53.231Z,16.90
2023-03-02T03:48:54.114Z,20.40
2023-03-02T03:49:55.150Z,18.20
2023-03-02T03:50:53.264Z,18.20
2023-03-02T03:51:53.239Z,17.80
2023-03-02T03:52:53.049Z,18.50
2023-03-02T03:53:53.082Z,20.30
2023-03-02T03:54:53.069Z,17.80
2023-03-02T03:55:52.934Z,21.60
2023-03-02T03:56:52.916Z,19.70
2023-03-02T03:57:52.902Z,19.50
2023-03-02T03:58:52.963Z,19.00
2023-03-02T03:59:53.089Z,17.00
2023-03-02T04:00:54.065Z,17.60
2023-03-02T04:01:53.005Z,15.90
2023-03-02T04:02:53.096Z,18.30
2023-03-02T04:03:52.872Z,17.40
2023-03-02T04:04:52.840Z,17.50
2023-03-02T04:05:52.840Z,18.60
2023-03-02T04:06:52.901Z,18.80
2023-03-02T04:07:52.793Z,19.10
2023-03-02T04:08:52.778Z,19.20
2023-03-02T04:09:52.793Z,17.80
2023-03-02T04:10:52.750Z,20.60
2023-03-02T04:11:52.741Z,19.60
2023-03-02T04:12:52.726Z,20.00
2023-03-02T04:13:52.714Z,16.10
2023-03-02T04:14:52.720Z,18.00
2023-03-02T04:15:52.718Z,16.50
2023-03-02T04:16:52.687Z,17.50
2023-03-02T04:17:52.674Z,16.80
2023-03-02T04:18:52.656Z,15.90
2023-03-02T04:19:52.670Z,18.80
2023-03-02T04:20:52.636Z,16.80
2023-03-02T04:21:52.618Z,17.20
2023-03-02T04:22:52.626Z,17.50
2023-03-02T04:23:52.597Z,17.60
2023-03-02T04:24:52.630Z,18.50
2023-03-02T04:25:52.587Z,19.80
2023-03-02T04:26:52.576Z,16.90
2023-03-02T04:27:52.571Z,18.40
2023-03-02T04:28:52.562Z,16.50
2023-03-02T04:29:52.556Z,17.90
2023-03-02T04:30:52.579Z,19.10
2023-03-02T04:31:52.591Z,18.10
2023-03-02T04:32:52.522Z,17.70
2023-03-02T04:33:52.525Z,18.50
2023-03-02T04:34:52.516Z,17.50
2023-03-02T04:35:52.586Z,17.70
2023-03-02T04:36:52.496Z,16.80
2023-03-02T04:37:52.478Z,15.70
2023-03-02T04:38:52.470Z,18.70
2023-03-02T04:39:52.462Z,17.00
2023-03-02T04:40:52.472Z,19.50
2023-03-02T04:41:52.433Z,17.40
2023-03-02T04:42:52.441Z,15.20
2023-03-02T04:43:52.415Z,17.70
2023-03-02T04:44:52.431Z,17.50
2023-03-02T04:45:52.409Z,17.40
2023-03-02T04:46:52.471Z,18.30
2023-03-02T04:47:52.367Z,19.50
2023-03-02T04:48:52.378Z,17.70
2023-03-02T04:49:52.360Z,16.40
2023-03-02T04:50:52.357Z,18.60
2023-03-02T04:51:52.332Z,18.80
2023-03-02T04:52:52.329Z,16.90
2023-03-02T04:53:52.328Z,17.70
2023-03-02T04:54:52.346Z,18.00
2023-03-02T04:55:52.297Z,18.40
2023-03-02T04:56:52.304Z,19.60
2023-03-02T04:57:52.277Z,18.50
2023-03-02T04:58:52.276Z,19.40
2023-03-02T04:59:52.304Z,17.00
2023-03-02T05:00:52.257Z,16.60
2023-03-02T05:01:52.300Z,17.10
2023-03-02T05:02:52.240Z,18.60
2023-03-02T05:03:52.212Z,17.00
2023-03-02T05:04:52.295Z,17.40
2023-03-02T05:05:52.189Z,16.80
2023-03-02T05:06:52.212Z,17.20
2023-03-02T05:07:52.207Z,18.30
2023-03-02T05:08:52.152Z,16.30
2023-03-02T05:09:52.166Z,18.40
2023-03-02T05:10:52.132Z,17.10
2023-03-02T05:11:52.145Z,16.60
2023-03-02T05:12:52.109Z,18.10
2023-03-02T05:13:52.119Z,18.10
2023-03-02T05:14:52.123Z,16.90
2023-03-02T05:15:52.111Z,17.90
2023-03-02T05:16:52.086Z,18.70
2023-03-02T05:17:52.069Z,19.60
2023-03-02T05:18:52.085Z,18.00
2023-03-02T05:19:52.057Z,20.50
2023-03-02T05:20:52.031Z,17.60
2023-03-02T05:21:52.041Z,17.40
2023-03-02T05:22:52.033Z,17.80
2023-03-02T05:23:52.010Z,17.40
2023-03-02T05:24:52.039Z,16.00
2023-03-02T05:25:51.989Z,15.40
2023-03-02T05:26:51.964Z,17.30
2023-03-02T05:27:51.975Z,17.40
2023-03-02T05:28:53.955Z,18.10
2023-03-02T05:29:51.978Z,16.30
2023-03-02T05:30:51.937Z,16.70
2023-03-02T05:31:52.199Z,16.00
2023-03-02T05:32:51.921Z,16.70
2023-03-02T05:33:51.910Z,18.10
2023-03-02T05:34:51.867Z,18.70
2023-03-02T05:35:51.908Z,15.70
2023-03-02T05:36:51.861Z,15.90
2023-03-02T05:37:51.800Z,17.80
2023-03-02T05:38:51.801Z,18.80
2023-03-02T05:39:51.865Z,18.30
2023-03-02T05:40:51.817Z,18.20
2023-03-02T05:41:51.781Z,16.50
2023-03-02T05:42:51.787Z,16.90
2023-03-02T05:43:51.798Z,15.90
2023-03-02T05:44:51.753Z,15.50
2023-03-02T05:45:51.732Z,18.00
2023-03-02T05:46:51.789Z,18.20
2023-03-02T05:47:51.722Z,18.20
2023-03-02T05:48:51.696Z,19.80
2023-03-02T05:49:51.687Z,18.90
2023-03-02T05:50:51.712Z,20.10
2023-03-02T05:51:51.667Z,19.70
2023-03-02T05:52:51.659Z,16.10
2023-03-02T05:53:51.638Z,18.80
2023-03-02T05:54:51.642Z,18.80
2023-03-02T05:55:51.657Z,17.50
2023-03-02T05:56:51.635Z,18.50
2023-03-02T05:57:51.600Z,18.20
2023-03-02T05:58:51.587Z,17.40
2023-03-02T05:59:51.593Z,17.10
2023-03-02T06:00:51.588Z,17.90
2023-03-02T06:01:51.595Z,18.10
2023-03-02T06:02:51.638Z,20.40
2023-03-02T06:03:51.555Z,20.10
2023-03-02T06:04:51.541Z,18.70
2023-03-02T06:05:51.525Z,20.20
2023-03-02T06:06:51.500Z,17.20
2023-03-02T06:07:51.500Z,16.90
2023-03-02T06:08:51.480Z,18.90
2023-03-02T06:09:51.491Z,17.70
2023-03-02T06:10:51.453Z,17.10
2023-03-02T06:11:51.453Z,17.70
2023-03-02T06:12:51.435Z,16.10
2023-03-02T06:13:51.438Z,17.30
2023-03-02T06:14:51.433Z,17.90
2023-03-02T06:15:51.405Z,18.30
2023-03-02T06:16:51.474Z,20.20
2023-03-02T06:17:51.394Z,17.60
2023-03-02T06:18:51.378Z,16.90
2023-03-02T06:19:51.389Z,17.20
2023-03-02T06:20:51.378Z,15.60
2023-03-02T06:21:51.370Z,16.20
2023-03-02T06:22:51.361Z,16.70
2023-03-02T06:23:51.324Z,17.20
2023-03-02T06:24:51.324Z,17.20
2023-03-02T06:25:51.334Z,19.30
2023-03-02T06:26:51.287Z,17.30
2023-03-02T06:27:51.297Z,17.20
2023-03-02T06:28:53.589Z,19.90
2023-03-02T06:29:51.302Z,19.40
2023-03-02T06:30:51.253Z,19.30
2023-03-02T06:31:51.364Z,17.40
2023-03-02T06:32:51.337Z,20.30
2023-03-02T06:33:51.237Z,16.80
2023-03-02T06:34:51.226Z,16.80
2023-03-02T06:35:51.394Z,16.80
2023-03-02T06:36:51.185Z,16.50
2023-03-02T06:37:51.194Z,18.80
2023-03-02T06:38:51.169Z,16.90
2023-03-02T06:39:51.183Z,17.20
2023-03-02T06:40:51.142Z,19.00
2023-03-02T06:41:51.144Z,15.40
2023-03-02T06:42:51.151Z,16.30
2023-03-02T06:43:51.130Z,18.10
2023-03-02T06:44:51.121Z,18.60
2023-03-02T06:45:51.192Z,16.60
2023-03-02T06:46:51.095Z,16.50
2023-03-02T06:47:51.098Z,19.10
2023-03-02T06:48:51.097Z,21.60
2023-03-02T06:49:51.071Z,19.10
2023-03-02T06:50:51.090Z,19.00
2023-03-02T06:51:51.041Z,18.50
2023-03-02T06:52:51.028Z,19.50
2023-03-02T06:53:51.019Z,15.50
2023-03-02T06:54:51.011Z,17.40
2023-03-02T06:55:51.021Z,20.20
2023-03-02T06:56:50.988Z,18.70
2023-03-02T06:57:50.991Z,17.70
2023-03-02T06:58:50.970Z,18.40
2023-03-02T06:59:50.975Z,16.30
2023-03-02T07:00:50.967Z,20.10
2023-03-02T07:01:50.933Z,17.10
2023-03-02T07:02:50.942Z,17.80
2023-03-02T07:03:51.024Z,19.90
2023-03-02T07:04:50.931Z,21.50
2023-03-02T07:05:50.889Z,18.40
2023-03-02T07:06:50.934Z,18.60
2023-03-02T07:07:50.871Z,19.30
2023-03-02T07:08:50.866Z,17.30
2023-03-02T07:09:50.859Z,18.00
2023-03-02T07:10:50.828Z,14.80
2023-03-02T07:11:50.834Z,14.90
2023-03-02T07:12:50.813Z,15.50
2023-03-02T07:13:50.804Z,14.70
2023-03-02T07:14:50.797Z,16.30
2023-03-02T07:15:50.786Z,16.90
2023-03-02T07:16:50.824Z,14.80
2023-03-02T07:17:50.898Z,16.30
2023-03-02T07:18:50.757Z,15.70
2023-03-02T07:19:50.761Z,16.20
2023-03-02T07:20:50.730Z,15.50
2023-03-02T07:21:50.714Z,16.10
2023-03-02T07:22:50.707Z,19.10
2023-03-02T07:23:50.703Z,19.80
2023-03-02T07:24:50.698Z,19.00
2023-03-02T07:25:50.673Z,16.60
2023-03-02T07:26:50.657Z,16.70
2023-03-02T07:27:50.779Z,16.20
2023-03-02T07:28:50.643Z,16.50
2023-03-02T07:29:50.654Z,16.10
2023-03-02T07:30:50.642Z,14.40
2023-03-02T07:31:50.621Z,15.60
2023-03-02T07:32:50.624Z,14.90
2023-03-02T07:33:50.583Z,14.30
2023-03-02T07:34:50.591Z,15.10
2023-03-02T07:35:50.586Z,17.50
2023-03-02T07:36:50.554Z,16.50
2023-03-02T07:37:50.540Z,16.10
2023-03-02T07:38:50.531Z,17.20
2023-03-02T07:39:50.553Z,16.00
2023-03-02T07:40:50.555Z,15.70
2023-03-02T07:41:50.496Z,14.00
2023-03-02T07:42:50.485Z,14.30
2023-03-02T07:43:50.485Z,14.00
2023-03-02T07:44:50.462Z,14.70
2023-03-02T07:45:50.467Z,16.40
2023-03-02T07:46:50.500Z,16.40
2023-03-02T07:47:50.438Z,17.00
2023-03-02T07:48:50.451Z,59.20
2023-03-02T07:49:50.434Z,54.80
2023-03-02T07:50:50.414Z,20.40
2023-03-02T07:51:50.399Z,18.10
2023-03-02T07:52:50.385Z,18.30
2023-03-02T07:53:50.450Z,17.80
2023-03-02T07:54:50.358Z,18.30
2023-03-02T07:55:50.373Z,16.50
2023-03-02T07:56:50.341Z,15.80
2023-03-02T07:57:50.326Z,15.50
2023-03-02T07:58:50.308Z,16.30
2023-03-02T07:59:50.323Z,12.70
2023-03-02T08:00:50.310Z,14.50
2023-03-02T08:01:50.309Z,14.30
2023-03-02T08:02:50.316Z,15.30
2023-03-02T08:03:50.266Z,13.80
2023-03-02T08:04:50.246Z,13.70
2023-03-02T08:05:50.262Z,15.00
2023-03-02T08:06:50.230Z,15.30
2023-03-02T08:07:50.231Z,15.80
2023-03-02T08:08:50.212Z,14.70
2023-03-02T08:09:50.206Z,15.30
2023-03-02T08:10:50.205Z,16.10
2023-03-02T08:11:50.200Z,12.80
2023-03-02T08:12:50.166Z,15.30
2023-03-02T08:13:50.154Z,16.40
2023-03-02T08:14:50.154Z,14.50
2023-03-02T08:15:50.232Z,14.80
2023-03-02T08:16:50.117Z,14.10
2023-03-02T08:17:50.120Z,15.20
2023-03-02T08:18:50.106Z,15.40
2023-03-02T08:19:50.104Z,14.30
2023-03-02T08:20:50.092Z,14.20
2023-03-02T08:21:50.100Z,15.80
2023-03-02T08:22:50.080Z,17.20
2023-03-02T08:23:50.192Z,16.10
2023-03-02T08:24:50.047Z,17.00
2023-03-02T08:25:50.050Z,14.10
2023-03-02T08:26:50.026Z,14.50
2023-03-02T08:27:50.005Z,13.50
2023-03-02T08:28:50.014Z,16.30
2023-03-02T08:29:49.993Z,14.20
2023-03-02T08:30:50.001Z,16.00
2023-03-02T08:31:50.056Z,17.00
2023-03-02T08:32:49.984Z,15.90
2023-03-02T08:33:49.956Z,15.00
2023-03-02T08:34:49.943Z,14.60
2023-03-02T08:35:52.522Z,13.80
2023-03-02T08:36:49.920Z,13.00
2023-03-02T08:37:50.037Z,14.50
2023-03-02T08:38:50.459Z,13.30
2023-03-02T08:39:49.980Z,14.40
2023-03-02T08:40:50.037Z,14.20
2023-03-02T08:41:49.901Z,14.60
2023-03-02T08:42:49.954Z,14.00
2023-03-02T08:43:50.322Z,14.60
2023-03-02T08:44:49.990Z,16.20
2023-03-02T08:45:49.956Z,14.20
2023-03-02T08:46:49.803Z,13.80
2023-03-02T08:47:49.805Z,14.20
2023-03-02T08:48:49.798Z,14.60
2023-03-02T08:49:49.777Z,13.70
2023-03-02T08:50:49.772Z,13.40
2023-03-02T08:51:49.760Z,12.70
2023-03-02T08:52:49.734Z,15.40
2023-03-02T08:53:49.742Z,14.00
2023-03-02T08:54:49.742Z,13.40
2023-03-02T08:55:49.719Z,16.10
2023-03-02T08:56:49.688Z,14.30
2023-03-02T08:57:49.696Z,14.30
2023-03-02T08:58:49.674Z,12.80
2023-03-02T08:59:49.660Z,13.20
2023-03-02T09:00:49.717Z,14.30
2023-03-02T09:01:49.811Z,13.60
2023-03-02T09:02:49.624Z,14.20
2023-03-02T09:03:49.655Z,14.90
2023-03-02T09:04:49.713Z,14.00
2023-03-02T09:05:49.608Z,13.80
2023-03-02T09:06:49.644Z,15.20
2023-03-02T09:07:49.585Z,13.00
2023-03-02T09:08:49.570Z,14.00
2023-03-02T09:09:49.568Z,13.90
2023-03-02T09:10:49.552Z,14.10
2023-03-02T09:11:49.532Z,15.50
2023-03-02T09:12:49.535Z,16.00
2023-03-02T09:13:49.582Z,14.80
2023-03-02T09:14:49.500Z,12.70
2023-03-02T09:15:49.522Z,13.40
2023-03-02T09:16:49.533Z,14.90
2023-03-02T09:17:49.471Z,14.60
2023-03-02T09:18:49.480Z,13.20
2023-03-02T09:19:49.451Z,14.10
2023-03-02T09:20:49.459Z,13.90
2023-03-02T09:21:49.436Z,14.00
2023-03-02T09:22:49.430Z,13.70
2023-03-02T09:23:49.423Z,15.50
2023-03-02T09:24:49.402Z,14.10
2023-03-02T09:25:49.396Z,14.00
2023-03-02T09:26:49.377Z,15.30
2023-03-02T09:27:49.361Z,13.00
2023-03-02T09:28:49.358Z,16.10
2023-03-02T09:29:49.343Z,14.10
2023-03-02T09:30:49.356Z,14.20
2023-03-02T09:31:49.396Z,15.40
2023-03-02T09:32:49.552Z,13.10
2023-03-02T09:33:49.320Z,14.30
2023-03-02T09:34:49.301Z,13.90
2023-03-02T09:35:49.307Z,13.10
2023-03-02T09:36:49.276Z,12.40
2023-03-02T09:37:49.266Z,13.70
2023-03-02T09:38:49.262Z,13.30
2023-03-02T09:39:49.285Z,12.40
2023-03-02T09:40:49.242Z,12.40
2023-03-02T09:41:49.236Z,12.60
2023-03-02T09:42:49.217Z,13.50
2023-03-02T09:43:49.203Z,13.40
2023-03-02T09:44:49.192Z,13.00
2023-03-02T09:45:49.240Z,13.50
2023-03-02T09:46:49.179Z,13.00
2023-03-02T09:47:49.156Z,13.50
2023-03-02T09:48:49.168Z,13.20
2023-03-02T09:49:49.138Z,14.60
2023-03-02T09:50:49.140Z,13.60
2023-03-02T09:51:49.143Z,14.50
2023-03-02T09:52:49.150Z,14.10
2023-03-02T09:53:49.088Z,12.90
2023-03-02T09:54:49.085Z,13.80
2023-03-02T09:55:49.083Z,14.10
2023-03-02T09:56:49.065Z,14.20
2023-03-02T09:57:49.045Z,15.10
2023-03-02T09:58:49.043Z,12.60
2023-03-02T09:59:49.023Z,13.20
2023-03-02T10:00:49.029Z,14.50
2023-03-02T10:01:49.004Z,14.10
2023-03-02T10:02:49.066Z,12.70
2023-03-02T10:03:49.131Z,14.50
2023-03-02T10:04:49.019Z,13.30
2023-03-02T10:05:49.005Z,14.30
2023-03-02T10:06:48.950Z,16.60
2023-03-02T10:07:48.945Z,14.00
2023-03-02T10:08:48.928Z,13.60
2023-03-02T10:09:48.918Z,15.00
2023-03-02T10:10:48.937Z,14.30
2023-03-02T10:11:48.901Z,15.50
2023-03-02T10:12:48.895Z,14.00
2023-03-02T10:13:48.877Z,13.90
2023-03-02T10:14:48.900Z,13.10
2023-03-02T10:15:48.951Z,14.60
2023-03-02T10:16:48.857Z,12.90
2023-03-02T10:17:48.857Z,12.80
2023-03-02T10:18:49.008Z,13.90
2023-03-02T10:19:48.815Z,14.70
2023-03-02T10:20:48.829Z,15.90
2023-03-02T10:21:48.797Z,13.20
2023-03-02T10:22:48.788Z,12.90
2023-03-02T10:23:48.778Z,13.10
2023-03-02T10:24:48.766Z,12.00
2023-03-02T10:25:48.757Z,14.20
2023-03-02T10:26:48.742Z,13.30
2023-03-02T10:27:48.755Z,12.10
2023-03-02T10:28:48.726Z,13.70
2023-03-02T10:29:48.724Z,13.10
2023-03-02T10:30:48.740Z,12.10
2023-03-02T10:31:48.693Z,13.90
2023-03-02T10:32:48.696Z,13.30
2023-03-02T10:33:48.685Z,13.00
2023-03-02T10:34:48.660Z,11.70
2023-03-02T10:35:48.680Z,15.30
2023-03-02T10:36:48.648Z,16.20
2023-03-02T10:37:48.703Z,12.50
2023-03-02T10:38:48.623Z,13.10
2023-03-02T10:39:48.617Z,14.20
2023-03-02T10:40:48.621Z,13.80
2023-03-02T10:41:48.603Z,13.20
2023-03-02T10:42:48.593Z,11.30
2023-03-02T10:43:48.569Z,11.90
2023-03-02T10:44:48.571Z,11.10
2023-03-02T10:45:48.664Z,12.90
2023-03-02T10:46:48.601Z,11.30
2023-03-02T10:47:48.538Z,12.20
2023-03-02T10:48:49.910Z,13.20
2023-03-02T10:49:48.513Z,12.60
2023-03-02T10:50:48.533Z,10.80
2023-03-02T10:51:48.491Z,12.20
2023-03-02T10:52:59.283Z,11.80
2023-03-02T10:53:48.501Z,11.30
2023-03-02T10:54:48.465Z,12.00
2023-03-02T10:55:48.464Z,12.40
2023-03-02T10:56:48.472Z,12.20
2023-03-02T10:57:48.445Z,10.80
2023-03-02T10:58:48.431Z,12.80
2023-03-02T10:59:48.417Z,38.50
2023-03-02T11:00:48.426Z,11.20
2023-03-02T11:01:48.445Z,12.00
2023-03-02T11:02:48.394Z,14.20
2023-03-02T11:03:48.376Z,14.20
2023-03-02T11:04:48.418Z,13.00
2023-03-02T11:05:48.372Z,12.80
2023-03-02T11:06:48.357Z,12.90
2023-03-02T11:07:48.333Z,12.20
2023-03-02T11:08:48.358Z,11.40
2023-03-02T11:09:48.353Z,12.00
2023-03-02T11:10:48.352Z,10.60
2023-03-02T11:11:48.361Z,9.50
2023-03-02T11:12:48.297Z,10.90
2023-03-02T11:13:48.282Z,8.30
2023-03-02T11:14:48.296Z,11.20
2023-03-02T11:15:48.357Z,10.20
2023-03-02T11:16:48.263Z,10.30
2023-03-02T11:17:48.245Z,12.30
2023-03-02T11:18:48.289Z,10.20
2023-03-02T11:19:48.249Z,11.30
2023-03-02T11:20:48.229Z,11.00
2023-03-02T11:21:48.205Z,11.40
2023-03-02T11:22:48.200Z,10.30
2023-03-02T11:23:48.216Z,10.10
2023-03-02T11:24:48.185Z,13.20
2023-03-02T11:25:48.177Z,11.50
2023-03-02T11:26:48.178Z,9.00
2023-03-02T11:27:48.148Z,10.70
2023-03-02T11:28:48.142Z,10.70
2023-03-02T11:29:48.142Z,9.50
2023-03-02T11:30:48.152Z,10.40
2023-03-02T11:31:48.178Z,10.10
2023-03-02T11:32:48.220Z,13.20
2023-03-02T11:33:48.184Z,12.10
2023-03-02T11:34:48.082Z,9.10
2023-03-02T11:35:48.174Z,10.40
2023-03-02T11:36:48.077Z,10.30
2023-03-02T11:37:48.048Z,10.80
2023-03-02T11:38:48.067Z,9.60
2023-03-02T11:39:55.222Z,11.80
2023-03-02T11:40:48.041Z,10.40
2023-03-02T11:41:48.017Z,10.60
2023-03-02T11:42:48.006Z,10.60
2023-03-02T11:43:47.986Z,9.40
2023-03-02T11:44:47.990Z,11.60
2023-03-02T11:45:48.008Z,10.40
2023-03-02T11:46:48.025Z,9.80
2023-03-02T11:47:54.252Z,10.50
2023-03-02T11:48:47.957Z,10.00
2023-03-02T11:49:47.941Z,10.00
2023-03-02T11:50:47.943Z,11.50
2023-03-02T11:51:57.872Z,10.90
2023-03-02T11:52:47.980Z,9.80
2023-03-02T11:53:47.953Z,10.40
2023-03-02T11:54:47.893Z,13.60
2023-03-02T11:55:47.903Z,9.50
2023-03-02T11:56:47.884Z,35.90
2023-03-02T11:57:47.862Z,10.80
2023-03-02T11:58:47.867Z,11.20
2023-03-02T11:59:47.837Z,11.60
2023-03-02T12:00:47.841Z,13.30
2023-03-02T12:01:47.875Z,14.10
2023-03-02T12:02:47.811Z,13.00
2023-03-02T12:03:47.810Z,12.10
2023-03-02T12:04:47.797Z,9.30
2023-03-02T12:05:47.832Z,9.30
2023-03-02T12:06:47.773Z,10.80
2023-03-02T12:07:47.764Z,9.60
2023-03-02T12:08:47.801Z,11.80
2023-03-02T12:09:47.738Z,11.30
2023-03-02T12:10:47.755Z,11.10
2023-03-02T12:11:47.719Z,11.00
2023-03-02T12:12:47.711Z,10.90
2023-03-02T12:13:47.703Z,10.80
2023-03-02T12:14:47.708Z,8.70
2023-03-02T12:15:47.703Z,9.20
2023-03-02T12:16:47.792Z,9.00
2023-03-02T12:17:47.718Z,10.00
2023-03-02T12:18:47.664Z,9.30
2023-03-02T12:19:47.673Z,10.10
2023-03-02T12:20:47.660Z,10.30
2023-03-02T12:21:47.642Z,10.40
2023-03-02T12:22:47.620Z,10.20
2023-03-02T12:23:47.633Z,13.20
2023-03-02T12:24:47.597Z,9.80
2023-03-02T12:25:47.615Z,8.40
2023-03-02T12:26:47.604Z,9.50
2023-03-02T12:27:47.566Z,10.30
2023-03-02T12:28:47.560Z,8.40
2023-03-02T12:29:47.558Z,8.30
2023-03-02T12:30:47.558Z,9.50
2023-03-02T12:31:47.596Z,13.10
2023-03-02T12:32:47.559Z,8.80
2023-03-02T12:33:47.529Z,9.70
2023-03-02T12:34:47.514Z,9.50
2023-03-02T12:35:47.501Z,10.80
2023-03-02T12:36:47.521Z,9.20
2023-03-02T12:37:47.474Z,10.50
2023-03-02T12:38:47.513Z,9.20
2023-03-02T12:39:47.448Z,9.90
2023-03-02T12:40:47.444Z,9.30
2023-03-02T12:41:47.449Z,11.60
2023-03-02T12:42:47.430Z,10.50
2023-03-02T12:43:47.409Z,8.10
2023-03-02T12:44:47.410Z,12.30
2023-03-02T12:45:47.423Z,9.60
2023-03-02T12:46:47.418Z,11.10
2023-03-02T12:47:47.866Z,10.50
2023-03-02T12:48:47.970Z,7.90
2023-03-02T12:49:47.350Z,9.70
2023-03-02T12:50:47.347Z,10.60
2023-03-02T12:51:47.482Z,9.10
2023-03-02T12:52:47.320Z,10.50
2023-03-02T12:53:47.303Z,9.40